ADDS METAR Data INFO
IDs: Format: Raw Decoded Include TAF

Data at: 1601 UTC 12 Dec 2017

KCRQ 121553Z AUTO 00000KT 10SM CLR 15/M08 A3017 RMK AO2 SLP215 T01501083
KCRQ 121453Z AUTO 00000KT 10SM CLR 12/M10 A3016 RMK AO2 SLP213 T01171100 55001
KCRQ 121353Z AUTO 01003KT 10SM CLR 12/M11 A3016 RMK AO2 SLP211 T01221106
KCRQ 121253Z AUTO 00000KT 10SM CLR 12/M10 A3016 RMK AO2 SLP211 T01221100
KCRQ 121153Z AUTO 00000KT 10SM CLR 13/M11 A3017 RMK AO2 SLP212 T01331106 10156 20117 58002
KCRQ 121053Z AUTO 05003KT 10SM CLR 14/M11 A3017 RMK AO2 SLP215 T01391106
KCRQ 120953Z AUTO 07003KT 10SM CLR 13/M09 A3018 RMK AO2 SLP216 T01281089
KCRQ 120853Z AUTO 03003KT 10SM CLR 14/M08 A3017 RMK AO2 SLP214 T01391078 55002
KCRQ 120753Z AUTO 00000KT 10SM CLR 13/M07 A3017 RMK AO2 SLP214 T01331072 402560133
KCRQ 120653Z AUTO 00000KT 10SM CLR 14/M07 A3018 RMK AO2 SLP216 T01441067
KCRQ 120553Z AUTO 00000KT 10SM CLR 16/M07 A3018 RMK AO2 SLP216 T01561067 10228 20156 53005
KCRQ 120453Z AUTO 03004KT 10SM CLR 16/M06 A3017 RMK AO2 SLP213 T01611061
KCRQ 120353Z AUTO 08003KT 10SM CLR 19/M07 A3016 RMK AO2 SLP210 T01941072
KCRQ 120253Z AUTO 08003KT 10SM CLR 20/M07 A3016 RMK AO2 SLP212 T02001067 51007
KCRQ 120153Z AUTO 04004KT 10SM CLR 19/M05 A3016 RMK AO2 SLP211 T01941050
KCRQ 120053Z AUTO 00000KT 10SM CLR 21/M04 A3015 RMK AO2 SLP208 T02061044
KCRQ 112353Z AUTO 30003KT 10SM CLR 23/M04 A3014 RMK AO2 SLP204 T02281039 10256 20228 55003
KCRQ 112253Z AUTO 28004KT 10SM CLR 24/M06 A3014 RMK AO2 SLP202 T02391056
KCRQ 112153Z AUTO 27005KT 10SM CLR 25/M07 A3014 RMK AO2 SLP203 T02501067
KCRQ 112053Z AUTO 27006KT 10SM CLR 25/M07 A3015 RMK AO2 SLP207 T02501067 58018
KCRQ 111953Z AUTO 27005KT 10SM CLR 25/M09 A3017 RMK AO2 SLP214 T02501089
KCRQ 111853Z AUTO 23004KT 10SM CLR 24/M09 A3020 RMK AO2 SLP222 T02441094
KCRQ 111753Z AUTO 25005KT 10SM CLR 24/M09 A3021 RMK AO2 SLP226 T02391089 10244 20133 51015
KCRQ 111653Z AUTO 00000KT 10SM CLR 22/M05 A3020 RMK AO2 SLP223 T02221050
KCRQ 111553Z AUTO 08003KT 10SM CLR 18/M04 A3018 RMK AO2 SLP219 T01831044
KCRQ 111453Z AUTO 00000KT 10SM CLR 13/M06 A3016 RMK AO2 SLP212 T01331061 53013
KCRQ 111353Z AUTO 00000KT 10SM CLR 14/M06 A3014 RMK AO2 SLP203 T01441061
KCRQ 111253Z AUTO 35003KT 10SM CLR 14/M06 A3012 RMK AO2 SLP199 T01441056
KCRQ 111153Z AUTO 00000KT 10SM CLR 15/M07 A3012 RMK AO2 SLP198 T01501067 10178 20150 58007
KCRQ 111053Z AUTO 04003KT 10SM CLR 16/M07 A3013 RMK AO2 SLP200 T01561067
KCRQ 110953Z AUTO VRB03KT 10SM CLR 16/M06 A3014 RMK AO2 SLP204 T01611061
KCRQ 110853Z AUTO 00000KT 10SM CLR 16/M07 A3014 RMK AO2 SLP204 T01561067 50000
KCRQ 110753Z AUTO 00000KT 10SM CLR 17/M07 A3015 RMK AO2 SLP207 T01721072 402940139
KCRQ 110653Z AUTO 00000KT 10SM CLR 18/M08 A3015 RMK AO2 SLP205 T01781078
KCRQ 110553Z AUTO 00000KT 10SM CLR 17/M08 A3014 RMK AO2 SLP203 T01721083 10233 20161 51007
KCRQ 110453Z 04005KT 10SM CLR 19/M08 A3014 RMK AO2 SLP204 T01891078